Time;durP1;ratioP1;P1;durP2;ratioP2;P2;SDS_P1;SDS_P2;PMS_P1;PMS_P2;Temp;Humidity;BMP_temperature;BMP_pressure;BME280_temperature;BME280_humidity;BME280_pressure;Samples;Min_cycle;Max_cycle;Signal;HPM_P1;HPM_P2
2022/09/17 00:01:22;;;;;;;14.53;6.03;;;;;;;18.65;70.88;100027.94;1713451;83;27521;-68
2022/09/17 00:03:52;;;;;;;14.98;5.78;;;;;;;18.69;70.71;100021.83;1728546;82;25674;-68
2022/09/17 00:06:20;;;;;;;14.87;5.47;;;;;;;18.74;70.71;100023.93;1713781;83;25732;-68
2022/09/17 00:08:46;;;;;;;14.28;5.72;;;;;;;18.76;70.47;100023.20;1728739;82;25806;-68
2022/09/17 00:11:20;;;;;;;12.37;5.00;;;;;;;18.77;70.36;100018.93;1713626;83;27186;-68
2022/09/17 00:13:49;;;;;;;13.75;5.30;;;;;;;18.78;70.41;100023.84;1714007;83;27465;-67
2022/09/17 00:16:33;;;;;;;7.33;4.78;;;;;;;18.78;70.48;100019.22;1728818;82;25913;-68
2022/09/17 00:19:02;;;;;;;10.20;5.15;;;;;;;18.82;70.48;100007.91;1728620;83;25705;-68
2022/09/17 00:21:30;;;;;;;7.90;4.42;;;;;;;18.81;70.24;100006.23;1728527;82;25724;-68
2022/09/17 00:24:01;;;;;;;13.65;5.17;;;;;;;18.82;70.29;99999.73;1713662;82;25799;-68
2022/09/17 00:26:29;;;;;;;17.48;5.40;;;;;;;18.83;70.20;100006.33;1711753;83;27467;-67
2022/09/17 00:28:58;;;;;;;7.53;4.87;;;;;;;18.84;70.25;100011.27;1700211;83;25491;-68
2022/09/17 00:31:27;;;;;;;10.78;4.70;;;;;;;18.82;70.05;100012.86;1701649;84;25751;-68
2022/09/17 00:33:54;;;;;;;10.70;5.08;;;;;;;18.72;70.02;100017.88;1701868;84;25827;-68
2022/09/17 00:36:22;;;;;;;10.38;4.60;;;;;;;18.70;70.57;100016.70;1702068;84;25911;-68
2022/09/17 00:38:58;;;;;;;12.90;5.28;;;;;;;18.70;70.52;100012.61;1701765;84;27552;-67
2022/09/17 00:41:30;;;;;;;10.88;4.80;;;;;;;18.74;70.66;100017.12;1701954;83;25931;-68
2022/09/17 00:44:01;;;;;;;9.00;4.53;;;;;;;18.77;70.82;100018.08;1701790;84;25729;-68
2022/09/17 00:46:38;;;;;;;11.60;4.62;;;;;;;18.80;70.67;100019.53;1701909;84;26686;-68
2022/09/17 00:49:20;;;;;;;26.12;5.37;;;;;;;18.81;70.59;100015.77;1701810;83;25879;-67
2022/09/17 00:52:01;;;;;;;12.10;4.95;;;;;;;18.80;70.46;100009.49;1701837;84;27423;-68
2022/09/17 00:54:28;;;;;;;12.15;5.00;;;;;;;18.84;70.47;100011.27;1701227;83;25753;-68
2022/09/17 00:56:57;;;;;;;8.53;5.22;;;;;;;18.88;70.46;100002.97;1701686;84;25583;-68
2022/09/17 00:59:25;;;;;;;12.55;4.92;;;;;;;18.90;70.55;100000.89;1701878;84;25794;-67
2022/09/17 01:01:52;;;;;;;12.78;4.78;;;;;;;18.90;70.60;99994.08;1701749;83;26002;-67
2022/09/17 01:04:25;;;;;;;11.65;5.58;;;;;;;18.87;69.95;99999.96;1701946;83;28081;-67
2022/09/17 01:07:23;;;;;;;7.78;4.47;;;;;;;18.82;69.94;99991.06;1701923;83;25796;-67
2022/09/17 01:10:13;;;;;;;6.40;4.70;;;;;;;18.81;70.20;99987.16;1701864;84;25775;-66
2022/09/17 01:13:09;;;;;;;10.55;5.25;;;;;;;18.74;70.04;99992.09;1701736;82;25802;-68
2022/09/17 01:16:21;;;;;;;12.60;5.33;;;;;;;18.68;69.92;99991.58;1701586;83;25641;-67
2022/09/17 01:19:28;;;;;;;8.08;5.30;;;;;;;18.62;70.18;99993.75;1701492;83;27553;-67
2022/09/17 01:22:25;;;;;;;9.63;4.97;;;;;;;18.55;70.38;99988.32;1701815;83;25794;-67
2022/09/17 01:25:23;;;;;;;11.08;5.45;;;;;;;18.48;70.33;99981.18;1684967;83;25750;-67
2022/09/17 01:27:58;;;;;;;10.05;5.30;;;;;;;18.41;70.39;99976.57;1683456;84;25787;-67
2022/09/17 01:30:43;;;;;;;7.67;5.17;;;;;;;18.38;70.80;99976.13;1683607;84;25798;-67
2022/09/17 01:33:19;;;;;;;12.75;6.05;;;;;;;18.41;70.95;99973.85;1667685;85;26826;-67
2022/09/17 01:36:18;;;;;;;9.68;5.67;;;;;;;18.44;70.65;99978.03;1699322;82;25754;-67
2022/09/17 01:39:06;;;;;;;9.10;5.40;;;;;;;18.43;70.45;99977.72;1727144;82;25807;-67
2022/09/17 01:41:44;;;;;;;13.60;5.42;;;;;;;18.42;70.55;99975.50;1705148;83;25898;-67
2022/09/17 01:44:23;;;;;;;13.00;4.72;;;;;;;18.41;70.44;99975.72;1704997;83;25724;-68
2022/09/17 01:46:58;;;;;;;11.38;4.90;;;;;;;18.38;70.32;99974.25;1704140;83;27521;-66
2022/09/17 01:49:27;;;;;;;7.58;5.00;;;;;;;18.38;71.12;99968.81;1704838;83;25698;-69
2022/09/17 01:51:55;;;;;;;6.95;4.92;;;;;;;18.43;71.14;99969.55;1705255;82;25780;-67
2022/09/17 01:54:33;;;;;;;9.03;5.60;;;;;;;18.48;71.09;99968.92;1704886;83;26449;-67
2022/09/17 01:57:08;;;;;;;9.40;5.70;;;;;;;18.49;71.04;99975.52;1704927;83;25848;-67
2022/09/17 01:59:47;;;;;;;9.20;5.03;;;;;;;18.45;70.69;99973.73;1705034;83;27680;-67
2022/09/17 02:02:19;;;;;;;12.23;6.15;;;;;;;18.44;70.73;99970.69;1703971;83;25780;-67
2022/09/17 02:05:12;;;;;;;12.58;5.05;;;;;;;18.44;70.51;99969.87;1704813;84;25925;-67
2022/09/17 02:07:53;;;;;;;10.10;5.78;;;;;;;18.40;70.63;99971.31;1705038;83;25812;-67
2022/09/17 02:10:28;;;;;;;14.40;5.28;;;;;;;18.36;70.80;99976.34;1705052;84;26091;-67
2022/09/17 02:13:31;;;;;;;8.63;5.17;;;;;;;18.37;70.52;99986.19;1705135;84;27415;-66
2022/09/17 02:16:04;;;;;;;11.33;5.62;;;;;;;18.34;70.43;99988.48;1704903;83;25784;-67
2022/09/17 02:18:48;;;;;;;10.23;5.12;;;;;;;18.25;70.48;99992.77;1704787;83;25766;-67
2022/09/17 02:21:35;;;;;;;11.33;5.45;;;;;;;18.23;70.78;99992.66;1705113;83;25837;-67
2022/09/17 02:24:25;;;;;;;10.08;5.22;;;;;;;18.23;71.04;99985.86;1704302;83;25962;-67
2022/09/17 02:27:18;;;;;;;8.50;5.28;;;;;;;18.22;71.04;99980.92;1705061;82;27619;-67
2022/09/17 02:29:45;;;;;;;12.00;5.93;;;;;;;18.22;71.06;99975.47;1704211;83;25759;-67
2022/09/17 02:32:12;;;;;;;10.82;6.00;;;;;;;18.19;71.28;99981.34;1697102;84;25502;-67
2022/09/17 02:34:40;;;;;;;9.18;5.00;;;;;;;18.23;71.37;99983.14;1703875;84;25828;-68
2022/09/17 02:37:09;;;;;;;12.18;6.08;;;;;;;18.23;71.38;99985.86;1697008;84;26489;-69
2022/09/17 02:39:37;;;;;;;11.40;6.55;;;;;;;18.22;71.58;99983.64;1711290;83;27785;-67
2022/09/17 02:42:38;;;;;;;8.68;5.47;;;;;;;18.27;71.79;99989.83;1709618;83;27292;-67
2022/09/17 02:45:21;;;;;;;7.80;5.28;;;;;;;18.30;71.75;99984.80;1709574;83;25642;-68
2022/09/17 02:48:18;;;;;;;16.32;5.62;;;;;;;18.38;71.91;99983.78;1708828;83;26773;-69
2022/09/17 02:51:02;;;;;;;9.28;5.28;;;;;;;18.45;72.01;99990.07;1709760;83;26484;-68
2022/09/17 02:54:09;;;;;;;7.45;5.47;;;;;;;18.48;71.95;99990.71;1709793;83;28263;-67
2022/09/17 02:57:07;;;;;;;10.72;5.50;;;;;;;18.52;72.21;99982.42;1709795;83;25683;-67
2022/09/17 03:00:10;;;;;;;9.95;5.90;;;;;;;18.51;71.86;99980.23;1715384;83;25888;-67
2022/09/17 03:02:51;;;;;;;12.47;5.28;;;;;;;18.45;72.10;99972.38;1717405;83;25794;-66
2022/09/17 03:05:21;;;;;;;8.83;5.47;;;;;;;18.43;72.60;99955.93;1717659;83;25840;-67
2022/09/17 03:07:49;;;;;;;7.40;5.00;;;;;;;18.41;72.97;99964.32;1717525;83;27527;-69
2022/09/17 03:10:17;;;;;;;16.97;5.25;;;;;;;18.43;73.29;99964.92;1717216;83;25815;-68
2022/09/17 03:12:46;;;;;;;11.83;5.25;;;;;;;18.41;73.36;99962.95;1717391;83;25781;-67
2022/09/17 03:15:13;;;;;;;12.43;5.40;;;;;;;18.37;73.71;99967.12;1688856;83;26519;-67
2022/09/17 03:17:41;;;;;;;16.02;5.58;;;;;;;18.32;73.78;99961.48;1717282;83;25787;-67
2022/09/17 03:20:09;;;;;;;9.30;6.67;;;;;;;18.30;75.38;99960.30;1717304;83;27527;-68
2022/09/17 03:22:36;;;;;;;14.13;7.08;;;;;;;18.26;75.41;99949.53;1717161;83;25831;-67
2022/09/17 03:25:04;;;;;;;10.95;7.40;;;;;;;18.26;75.40;99950.89;1717263;83;25781;-66
2022/09/17 03:27:31;;;;;;;11.48;7.25;;;;;;;18.24;75.57;99949.42;1717526;83;25783;-68
2022/09/17 03:29:58;;;;;;;12.58;6.70;;;;;;;18.25;75.96;99956.52;1712203;83;25272;-68
2022/09/17 03:32:25;;;;;;;13.13;6.72;;;;;;;18.21;75.44;99958.82;1705010;84;27625;-68
2022/09/17 03:34:53;;;;;;;14.58;7.10;;;;;;;18.15;76.17;99952.85;1704673;84;25683;-67
2022/09/17 03:37:20;;;;;;;12.93;6.90;;;;;;;18.09;77.55;99954.51;1704884;83;25712;-67
2022/09/17 03:39:48;;;;;;;10.10;6.35;;;;;;;18.02;76.76;99948.22;1709475;83;26432;-69
2022/09/17 03:42:16;;;;;;;14.03;7.20;;;;;;;18.02;76.88;99946.86;1710359;82;26245;-68
2022/09/17 03:44:42;;;;;;;9.33;6.62;;;;;;;18.04;77.02;99948.00;1710341;83;28191;-68
2022/09/17 03:47:11;;;;;;;8.35;6.75;;;;;;;18.04;77.55;99943.92;1710437;82;25787;-68
2022/09/17 03:49:38;;;;;;;13.62;6.92;;;;;;;17.98;77.19;99944.22;1710362;83;25736;-68
2022/09/17 03:52:05;;;;;;;14.65;7.05;;;;;;;17.93;77.10;99942.61;1710536;83;25808;-67
2022/09/17 03:54:33;;;;;;;13.55;7.10;;;;;;;17.92;77.20;99933.63;1710690;82;25439;-68
2022/09/17 03:57:01;;;;;;;12.65;7.50;;;;;;;17.96;77.87;99928.64;1710529;83;28466;-69
2022/09/17 03:59:29;;;;;;;14.25;7.25;;;;;;;17.99;78.29;99935.86;1710597;83;25847;-69
2022/09/17 04:01:56;;;;;;;10.70;6.45;;;;;;;18.04;78.46;99931.17;1710444;83;25824;-69
2022/09/17 04:04:23;;;;;;;10.63;7.35;;;;;;;18.07;78.39;99920.38;1710831;82;25848;-69
2022/09/17 04:06:50;;;;;;;10.15;7.10;;;;;;;18.08;78.50;99913.36;1710553;83;25689;-70
2022/09/17 04:09:17;;;;;;;13.22;7.67;;;;;;;18.11;79.04;99914.83;1710723;83;28696;-69
2022/09/17 04:11:44;;;;;;;9.25;6.65;;;;;;;18.08;78.60;99910.64;1710259;83;25830;-69
2022/09/17 04:14:11;;;;;;;15.70;7.75;;;;;;;18.07;78.71;99917.13;1710545;82;25723;-70
2022/09/17 04:16:38;;;;;;;10.43;7.15;;;;;;;18.02;78.39;99921.54;1710557;82;26510;-69
2022/09/17 04:19:05;;;;;;;11.95;5.92;;;;;;;17.97;78.27;99919.44;1710416;82;25468;-69
2022/09/17 04:21:32;;;;;;;12.88;6.33;;;;;;;17.95;78.34;99929.11;1704780;83;27480;-69
2022/09/17 04:23:59;;;;;;;8.48;5.53;;;;;;;17.98;78.52;99930.61;1704950;84;25848;-69
2022/09/17 04:26:26;;;;;;;14.63;6.37;;;;;;;17.96;79.10;99937.63;1700420;83;25661;-68
2022/09/17 04:28:53;;;;;;;12.07;5.87;;;;;;;17.96;80.08;99937.63;1695389;84;25806;-68
2022/09/17 04:31:23;;;;;;;9.08;6.20;;;;;;;17.90;80.70;99934.84;1681166;84;25800;-68
2022/09/17 04:33:49;;;;;;;8.00;5.67;;;;;;;17.77;82.40;99934.29;1681289;85;27495;-68
2022/09/17 04:36:17;;;;;;;7.25;6.03;;;;;;;17.59;82.17;99932.97;1681089;85;26331;-68
2022/09/17 04:38:48;;;;;;;9.35;5.72;;;;;;;17.51;82.68;99938.59;1681474;85;25701;-69
2022/09/17 04:41:16;;;;;;;12.37;6.30;;;;;;;17.48;82.26;99942.55;1681175;85;26562;-68
2022/09/17 04:43:43;;;;;;;8.13;5.90;;;;;;;17.44;82.46;99939.91;1681476;85;26545;-68
2022/09/17 04:46:10;;;;;;;11.73;6.60;;;;;;;17.40;83.09;99940.01;1681178;84;27988;-67
2022/09/17 04:48:37;;;;;;;11.00;6.28;;;;;;;17.35;82.86;99938.40;1663603;83;25543;-68
2022/09/17 04:51:05;;;;;;;12.98;6.97;;;;;;;17.40;82.72;99945.45;1713040;82;25759;-68
2022/09/17 04:53:32;;;;;;;10.08;6.08;;;;;;;17.44;83.81;99947.23;1713268;82;26398;-68
2022/09/17 04:55:59;;;;;;;11.18;5.53;;;;;;;17.41;84.51;99944.41;1713243;83;25715;-68
2022/09/17 04:58:26;;;;;;;7.55;5.95;;;;;;;17.35;84.35;99940.61;1713675;82;27565;-68
2022/09/17 05:00:53;;;;;;;8.25;5.70;;;;;;;17.31;85.05;99943.40;1713196;83;25731;-68
2022/09/17 05:03:20;;;;;;;8.38;5.15;;;;;;;17.29;85.00;99938.70;1713518;82;25737;-68
2022/09/17 05:05:47;;;;;;;11.38;5.85;;;;;;;17.28;85.04;99942.97;1713597;82;26972;-68
2022/09/17 05:08:14;;;;;;;8.75;5.62;;;;;;;17.25;85.07;99935.23;1713608;82;26060;-69
2022/09/17 05:10:41;;;;;;;10.88;7.00;;;;;;;17.22;84.35;99937.80;1713275;82;27501;-68
2022/09/17 05:13:08;;;;;;;10.45;5.95;;;;;;;17.26;84.17;99936.91;1713324;82;25791;-68
2022/09/17 05:15:35;;;;;;;10.45;5.50;;;;;;;17.30;84.05;99936.28;1713325;82;25762;-68
2022/09/17 05:18:02;;;;;;;8.10;5.78;;;;;;;17.36;84.49;99933.28;1713164;82;25795;-68
2022/09/17 05:20:29;;;;;;;8.75;5.40;;;;;;;17.35;86.23;99920.22;1713281;82;25796;-68
2022/09/17 05:22:57;;;;;;;8.08;5.85;;;;;;;17.29;84.95;99922.90;1713361;82;29649;-68
2022/09/17 05:25:24;;;;;;;9.15;5.90;;;;;;;17.31;84.59;99927.09;1713276;82;25486;-67
2022/09/17 05:27:53;;;;;;;7.90;5.78;;;;;;;17.41;84.71;99928.09;1688871;84;25739;-68
2022/09/17 05:30:21;;;;;;;8.98;5.60;;;;;;;17.47;84.41;99935.44;1713832;82;26780;-68
2022/09/17 05:32:48;;;;;;;9.03;5.67;;;;;;;17.49;83.85;99930.64;1700069;84;25805;-68
2022/09/17 05:35:16;;;;;;;10.43;5.17;;;;;;;17.50;84.28;99930.11;1699778;84;27483;-68
2022/09/17 05:37:43;;;;;;;10.23;6.45;;;;;;;17.52;84.24;99923.45;1699735;84;25792;-68
2022/09/17 05:40:10;;;;;;;12.82;5.85;;;;;;;17.56;83.88;99925.23;1699736;84;25777;-68
2022/09/17 05:42:37;;;;;;;15.98;6.55;;;;;;;17.59;83.87;99928.89;1699746;83;25803;-68
2022/09/17 05:45:06;;;;;;;15.15;8.20;;;;;;;17.62;83.44;99923.56;1699634;83;25740;-68
2022/09/17 05:47:34;;;;;;;11.33;7.60;;;;;;;17.66;83.50;99925.67;1699847;84;28263;-68
2022/09/17 05:50:01;;;;;;;11.85;6.55;;;;;;;17.74;83.31;99927.91;1699669;84;25754;-69
2022/09/17 05:52:28;;;;;;;13.75;7.17;;;;;;;17.79;83.06;99924.05;1699881;84;25729;-68
2022/09/17 05:54:56;;;;;;;12.50;6.42;;;;;;;17.77;82.46;99924.27;1700068;84;25812;-69
2022/09/17 05:57:23;;;;;;;10.18;6.50;;;;;;;17.80;82.90;99925.20;1700140;83;25859;-68
2022/09/17 05:59:50;;;;;;;9.28;6.28;;;;;;;17.83;82.56;99915.81;1700042;84;28278;-68
2022/09/17 06:02:18;;;;;;;11.45;6.05;;;;;;;17.87;82.51;99925.76;1699857;84;26248;-69
2022/09/17 06:04:45;;;;;;;10.05;6.25;;;;;;;17.91;82.23;99927.01;1699953;84;25828;-69
2022/09/17 06:07:12;;;;;;;9.60;5.65;;;;;;;17.94;82.43;99933.41;1699800;83;25786;-69
2022/09/17 06:09:40;;;;;;;11.03;6.22;;;;;;;17.96;82.24;99934.08;1700048;84;25812;-69
2022/09/17 06:12:08;;;;;;;10.93;6.28;;;;;;;17.99;82.43;99929.56;1699861;84;27698;-69
2022/09/17 06:14:35;;;;;;;9.23;6.10;;;;;;;17.99;82.16;99918.18;1700194;84;25932;-68
2022/09/17 06:17:02;;;;;;;8.58;5.60;;;;;;;18.05;82.18;99918.38;1699597;84;25747;-69
2022/09/17 06:19:29;;;;;;;9.58;5.70;;;;;;;18.10;81.82;99913.18;1699934;83;25782;-69
2022/09/17 06:21:56;;;;;;;10.38;6.12;;;;;;;18.08;81.36;99907.92;1699671;84;27250;-69
2022/09/17 06:24:23;;;;;;;9.93;5.85;;;;;;;18.12;81.65;99907.84;1699909;83;27475;-68
2022/09/17 06:26:51;;;;;;;12.03;6.25;;;;;;;18.18;81.62;99903.95;1692501;82;25802;-68
2022/09/17 06:29:20;;;;;;;12.95;6.53;;;;;;;18.24;81.58;99899.06;1703391;83;25755;-69
2022/09/17 06:31:48;;;;;;;13.28;6.53;;;;;;;18.28;81.63;99887.55;1681079;85;25773;-68
2022/09/17 06:34:16;;;;;;;13.60;7.58;;;;;;;18.33;81.25;99891.52;1654003;85;25746;-68
2022/09/17 06:36:45;;;;;;;15.40;8.68;;;;;;;18.36;81.44;99897.38;1688063;82;27564;-69
2022/09/17 06:39:12;;;;;;;14.58;7.08;;;;;;;18.40;81.24;99901.37;1692934;84;25800;-67
2022/09/17 06:41:43;;;;;;;10.23;6.53;;;;;;;18.43;80.94;99906.91;1695045;84;25800;-67
2022/09/17 06:44:10;;;;;;;12.03;6.65;;;;;;;18.45;80.69;99904.29;1696356;84;26823;-68
2022/09/17 06:46:37;;;;;;;14.40;6.85;;;;;;;18.52;80.82;99906.16;1693970;84;25817;-68
2022/09/17 06:49:04;;;;;;;13.90;7.12;;;;;;;18.56;80.53;99912.88;1694548;84;28303;-69
2022/09/17 06:51:31;;;;;;;12.95;7.08;;;;;;;18.59;80.13;99926.09;1695731;84;27309;-68
2022/09/17 06:53:58;;;;;;;14.10;7.50;;;;;;;18.59;79.75;99931.00;1691532;82;25795;-67
2022/09/17 06:56:25;;;;;;;9.10;6.97;;;;;;;18.63;79.80;99938.23;1681258;85;26821;-67
2022/09/17 06:58:53;;;;;;;10.18;8.35;;;;;;;18.70;79.81;99949.95;1681388;85;27322;-68
2022/09/17 07:01:20;;;;;;;11.93;7.92;;;;;;;18.70;79.58;99955.94;1681388;85;27462;-69
2022/09/17 07:03:48;;;;;;;13.98;9.23;;;;;;;18.66;79.26;99954.67;1681216;85;25816;-68
2022/09/17 07:06:15;;;;;;;12.53;8.85;;;;;;;18.60;79.42;99972.17;1681380;85;25875;-68
2022/09/17 07:08:43;;;;;;;15.15;8.93;;;;;;;18.55;79.31;99971.98;1681576;85;26174;-68
2022/09/17 07:11:10;;;;;;;13.18;8.18;;;;;;;18.56;79.52;99979.61;1681318;85;25807;-68
2022/09/17 07:13:37;;;;;;;13.28;7.78;;;;;;;18.54;79.36;99983.92;1681304;83;27532;-67
2022/09/17 07:16:06;;;;;;;14.10;7.85;;;;;;;18.57;79.75;99988.10;1688783;83;25827;-67
2022/09/17 07:18:35;;;;;;;10.43;8.45;;;;;;;18.60;80.04;99991.25;1681031;85;25780;-68
2022/09/17 07:21:05;;;;;;;15.58;7.42;;;;;;;18.65;80.30;99993.88;1681498;85;26729;-68
2022/09/17 07:23:35;;;;;;;15.32;8.50;;;;;;;18.69;79.88;99999.21;1681449;85;25743;-68
2022/09/17 07:26:12;;;;;;;11.80;7.75;;;;;;;18.67;79.77;100006.23;1693514;83;28314;-68
2022/09/17 07:28:40;;;;;;;12.37;7.92;;;;;;;18.70;80.04;100010.42;1724587;82;25873;-68
2022/09/17 07:31:07;;;;;;;12.40;7.28;;;;;;;18.57;79.33;100014.80;1742236;82;25762;-68
2022/09/17 07:33:36;;;;;;;10.25;7.45;;;;;;;18.39;79.33;100010.48;1738235;81;25736;-68
2022/09/17 07:36:08;;;;;;;14.07;7.37;;;;;;;18.34;79.78;100011.62;1713149;82;25753;-69
2022/09/17 07:38:35;;;;;;;12.58;7.22;;;;;;;18.36;80.36;100018.54;1737189;81;27510;-68
2022/09/17 07:41:08;;;;;;;10.13;6.83;;;;;;;18.35;80.09;100014.14;1738402;81;25732;-66
2022/09/17 07:43:36;;;;;;;16.93;8.75;;;;;;;18.22;80.47;100013.58;1728509;82;25773;-67
2022/09/17 07:46:07;;;;;;;10.95;6.60;;;;;;;18.12;80.77;100007.19;1698969;84;25829;-68
2022/09/17 07:48:34;;;;;;;11.20;6.92;;;;;;;18.15;81.33;100001.31;1729470;82;26390;-67
2022/09/17 07:51:01;;;;;;;10.25;6.50;;;;;;;18.18;81.18;100001.95;1695261;84;27717;-68
2022/09/17 07:53:29;;;;;;;9.68;6.50;;;;;;;18.30;81.53;99993.51;1740977;81;26393;-69
2022/09/17 07:55:59;;;;;;;9.58;6.15;;;;;;;18.41;81.49;99997.50;1738103;81;25774;-68
2022/09/17 07:58:35;;;;;;;10.00;6.70;;;;;;;18.53;81.83;100001.30;1740131;81;26480;-69
2022/09/17 08:01:09;;;;;;;7.87;6.47;;;;;;;18.62;81.65;100004.65;1733956;81;25773;-69
2022/09/17 08:03:38;;;;;;;8.98;6.60;;;;;;;18.65;81.13;100010.23;1737541;81;27627;-69
2022/09/17 08:06:14;;;;;;;11.25;7.65;;;;;;;18.52;80.86;100018.69;1718546;83;25861;-69
2022/09/17 08:08:41;;;;;;;9.88;7.58;;;;;;;18.34;81.11;100016.54;1699576;84;26512;-67
2022/09/17 08:11:12;;;;;;;9.88;7.37;;;;;;;18.23;81.48;100011.72;1718621;83;26520;-68
2022/09/17 08:13:41;;;;;;;9.18;5.97;;;;;;;18.30;81.96;100007.13;1713698;81;26085;-68
2022/09/17 08:16:14;;;;;;;8.88;5.87;;;;;;;18.44;82.05;99988.39;1731245;82;28203;-68
2022/09/17 08:18:43;;;;;;;6.62;5.62;;;;;;;18.61;82.39;99979.81;1731228;82;34798;-68
2022/09/17 08:21:14;;;;;;;5.92;4.87;;;;;;;18.69;82.55;99978.24;1731404;82;25823;-69
2022/09/17 08:23:42;;;;;;;8.93;6.50;;;;;;;18.75;83.19;99962.44;1731975;81;25942;-69
2022/09/17 08:26:21;;;;;;;9.58;5.58;;;;;;;18.75;82.07;99962.44;1736943;81;25803;-69
2022/09/17 08:28:55;;;;;;;7.95;4.80;;;;;;;18.80;81.79;99966.41;1733735;81;28219;-68
2022/09/17 08:31:25;;;;;;;7.95;5.45;;;;;;;18.86;81.50;99966.95;1704715;82;25515;-69
2022/09/17 08:33:52;;;;;;;7.53;5.37;;;;;;;18.89;80.92;99967.87;1718407;83;25755;-68
2022/09/17 08:36:21;;;;;;;8.43;4.70;;;;;;;18.86;80.51;99965.05;1709145;83;25791;-68
2022/09/17 08:38:52;;;;;;;6.60;4.35;;;;;;;18.86;79.77;99973.76;1710467;83;25856;-68
2022/09/17 08:41:28;;;;;;;7.03;4.40;;;;;;;18.86;80.04;99968.31;1718059;83;27522;-68
2022/09/17 08:44:26;;;;;;;5.17;4.58;;;;;;;18.87;79.51;99965.90;1717442;83;25736;-69
2022/09/17 08:47:19;;;;;;;4.28;3.87;;;;;;;18.90;79.98;99964.09;1718226;83;25614;-69
2022/09/17 08:49:56;;;;;;;6.40;4.03;;;;;;;19.00;79.78;99956.91;1718072;83;26557;-69
2022/09/17 08:52:48;;;;;;;5.62;4.70;;;;;;;19.02;79.63;99948.83;1725949;82;25806;-68
2022/09/17 08:55:45;;;;;;;5.60;4.05;;;;;;;19.08;79.86;99964.86;1712861;82;27471;-68
2022/09/17 08:58:52;;;;;;;5.17;4.12;;;;;;;19.16;79.89;99969.23;1672904;85;25777;-68
2022/09/17 09:01:48;;;;;;;9.73;6.30;;;;;;;19.22;79.37;99958.86;1695359;83;25768;-68
2022/09/17 09:04:37;;;;;;;8.03;6.75;;;;;;;19.18;78.20;99960.31;1701600;83;27607;-69
2022/09/17 09:07:27;;;;;;;9.58;6.28;;;;;;;18.99;77.87;99959.31;1714833;82;25711;-69
2022/09/17 09:10:21;;;;;;;9.28;6.58;;;;;;;18.82;78.21;99952.91;1722945;82;28111;-70
2022/09/17 09:12:51;;;;;;;7.72;5.75;;;;;;;18.80;78.36;99959.09;1734014;82;25808;-70
2022/09/17 09:15:44;;;;;;;7.05;6.20;;;;;;;18.92;78.83;99945.15;1734054;82;25724;-68
2022/09/17 09:18:22;;;;;;;8.38;6.75;;;;;;;19.00;77.97;99944.10;1733449;82;26257;-70
2022/09/17 09:20:54;;;;;;;10.23;6.00;;;;;;;19.03;78.08;99946.41;1734287;82;25794;-70
2022/09/17 09:23:51;;;;;;;10.13;6.03;;;;;;;19.08;78.61;99937.59;1707345;82;28355;-70
2022/09/17 09:26:38;;;;;;;8.95;6.50;;;;;;;19.15;78.31;99937.05;1732926;82;25720;-70
2022/09/17 09:29:22;;;;;;;10.08;6.20;;;;;;;19.21;78.14;99938.09;1691492;84;25886;-70
2022/09/17 09:32:26;;;;;;;9.63;6.33;;;;;;;19.29;77.91;99931.04;1664289;86;25824;-68
2022/09/17 09:34:55;;;;;;;9.13;6.70;;;;;;;19.36;77.79;99940.57;1664498;86;25853;-70
2022/09/17 09:37:32;;;;;;;9.65;6.62;;;;;;;19.38;77.30;99936.57;1689800;84;27637;-69
2022/09/17 09:40:04;;;;;;;10.20;6.80;;;;;;;19.40;76.82;99933.62;1671291;84;25986;-70
2022/09/17 09:42:35;;;;;;;9.40;5.70;;;;;;;19.39;76.78;99930.58;1695084;84;25884;-70
2022/09/17 09:45:16;;;;;;;10.38;6.10;;;;;;;19.44;77.00;99929.93;1672723;84;25917;-70
2022/09/17 09:48:00;;;;;;;10.70;6.30;;;;;;;19.50;76.37;99929.91;1694368;84;25724;-67
2022/09/17 09:50:50;;;;;;;9.60;6.55;;;;;;;19.45;76.19;99931.61;1636815;86;28092;-69
2022/09/17 09:53:38;;;;;;;9.90;6.45;;;;;;;19.48;76.58;99933.37;1628532;87;25952;-69
2022/09/17 09:56:30;;;;;;;9.55;6.72;;;;;;;19.51;76.53;99937.55;1647035;86;25933;-70
2022/09/17 09:58:57;;;;;;;12.93;6.45;;;;;;;19.50;76.31;99944.91;1591359;87;25844;-69
2022/09/17 10:01:29;;;;;;;11.65;6.83;;;;;;;19.48;76.22;99940.73;1647348;86;25789;-69
2022/09/17 10:03:57;;;;;;;9.33;6.50;;;;;;;19.49;76.18;99941.05;1647114;87;28087;-70
2022/09/17 10:06:28;;;;;;;11.70;6.53;;;;;;;19.50;76.31;99942.19;1647227;87;25876;-71
2022/09/17 10:09:00;;;;;;;9.93;6.80;;;;;;;19.48;76.48;99938.01;1647233;87;25864;-70
2022/09/17 10:11:32;;;;;;;11.85;6.53;;;;;;;19.47;76.47;99937.69;1647161;86;25853;-68
2022/09/17 10:14:29;;;;;;;9.20;6.65;;;;;;;19.48;76.53;99955.20;1647436;86;25896;-69
2022/09/17 10:17:25;;;;;;;12.55;7.15;;;;;;;19.53;76.70;99955.41;1647524;87;27667;-69
2022/09/17 10:20:09;;;;;;;10.88;6.87;;;;;;;19.54;76.45;99954.33;1683135;84;25736;-69
2022/09/17 10:22:46;;;;;;;9.63;7.12;;;;;;;19.51;76.53;99945.73;1694126;84;25812;-71
2022/09/17 10:25:33;;;;;;;8.88;6.62;;;;;;;19.47;76.71;99941.78;1690595;84;25795;-70
2022/09/17 10:28:04;;;;;;;17.62;9.25;;;;;;;19.45;76.63;99942.52;1700412;82;25775;-70
2022/09/17 10:30:31;;;;;;;14.15;7.10;;;;;;;19.47;76.48;99940.42;1728556;82;27467;-70
2022/09/17 10:33:23;;;;;;;9.38;6.12;;;;;;;19.51;76.53;99943.02;1728618;82;25474;-70
2022/09/17 10:36:12;;;;;;;9.98;6.00;;;;;;;19.53;76.41;99935.45;1728382;82;25840;-70
2022/09/17 10:38:42;;;;;;;15.00;5.75;;;;;;;19.55;76.13;99936.91;1718827;82;25897;-70
2022/09/17 10:41:21;;;;;;;8.93;4.95;;;;;;;19.59;75.74;99940.04;1723164;81;25972;-70
2022/09/17 10:43:50;;;;;;;5.70;4.33;;;;;;;19.59;74.97;99941.95;1758649;81;27295;-69
2022/09/17 10:46:27;;;;;;;5.58;4.40;;;;;;;19.58;74.96;99938.91;1731869;81;25945;-71
2022/09/17 10:49:24;;;;;;;12.03;4.55;;;;;;;19.54;74.50;99938.50;1742673;81;25268;-70
2022/09/17 10:51:51;;;;;;;9.45;5.25;;;;;;;19.51;74.66;99923.92;1723339;83;25922;-71
2022/09/17 10:54:36;;;;;;;5.53;4.37;;;;;;;19.49;74.23;99930.14;1721207;83;25802;-69
2022/09/17 10:57:06;;;;;;;6.45;4.80;;;;;;;19.46;74.17;99931.92;1759580;81;27484;-69
2022/09/17 10:59:51;;;;;;;10.45;5.10;;;;;;;19.44;74.20;99928.06;1760212;81;25746;-70
2022/09/17 11:02:26;;;;;;;5.55;4.47;;;;;;;19.50;74.53;99935.88;1755976;81;25767;-69
2022/09/17 11:05:25;;;;;;;7.08;4.25;;;;;;;19.54;74.27;99937.14;1757601;81;25800;-69
2022/09/17 11:08:25;;;;;;;6.40;4.50;;;;;;;19.51;74.16;99934.83;1760251;81;25749;-70
2022/09/17 11:11:11;;;;;;;10.75;4.15;;;;;;;19.54;74.23;99937.14;1731329;81;27474;-69
2022/09/17 11:13:52;;;;;;;5.35;4.33;;;;;;;19.48;73.57;99936.10;1751286;81;26223;-69
2022/09/17 11:16:37;;;;;;;11.22;4.55;;;;;;;19.49;73.35;99942.41;1740443;81;25898;-69
2022/09/17 11:19:12;;;;;;;7.60;3.90;;;;;;;19.41;73.22;99932.56;1730113;82;26209;-68
2022/09/17 11:22:05;;;;;;;4.85;3.22;;;;;;;19.32;72.81;99936.05;1723324;82;26424;-69
2022/09/17 11:25:20;;;;;;;6.90;4.00;;;;;;;19.28;72.95;99925.27;1729368;81;28373;-68
2022/09/17 11:27:59;;;;;;;8.35;3.67;;;;;;;19.28;72.99;99924.41;1700691;84;25811;-69
2022/09/17 11:30:34;;;;;;;8.33;4.17;;;;;;;19.39;73.36;99931.43;1674166;84;25832;-69
2022/09/17 11:33:15;;;;;;;7.60;3.80;;;;;;;19.42;72.96;99937.48;1678641;85;25925;-69
2022/09/17 11:35:55;;;;;;;7.00;3.90;;;;;;;19.39;72.95;99947.80;1678850;83;25809;-69
2022/09/17 11:38:36;;;;;;;6.10;3.40;;;;;;;19.41;72.81;99939.39;1678221;83;28438;-71
2022/09/17 11:41:29;;;;;;;3.65;3.35;;;;;;;19.39;72.49;99925.98;1648141;86;25916;-70
2022/09/17 11:44:26;;;;;;;4.70;3.58;;;;;;;19.37;72.48;99932.67;1670122;85;26695;-70
2022/09/17 11:47:01;;;;;;;5.05;3.55;;;;;;;19.32;72.59;99937.41;1652345;84;25845;-68
2022/09/17 11:49:50;;;;;;;8.38;3.20;;;;;;;19.29;72.79;99924.73;1679101;85;25748;-69
2022/09/17 11:52:33;;;;;;;3.98;3.58;;;;;;;19.35;72.71;99919.27;1650034;86;27618;-71
2022/09/17 11:55:41;;;;;;;4.33;3.20;;;;;;;19.30;72.64;99922.32;1680946;83;25886;-71
2022/09/17 11:58:29;;;;;;;4.40;3.10;;;;;;;19.30;72.37;99917.72;1705647;83;25842;-72
2022/09/17 12:01:20;;;;;;;9.90;2.58;;;;;;;19.31;72.22;99919.40;1677536;83;26442;-69
2022/09/17 12:04:04;;;;;;;5.08;3.00;;;;;;;19.33;72.46;99906.36;1709311;83;27331;-70